createdAt,value
2022-12-23T00:07:42.753Z,92445.48
2022-12-23T00:16:08.488Z,92455.52
2022-12-23T00:24:31.287Z,92474.73
2022-12-23T00:32:54.355Z,92453.34
2022-12-23T00:41:37.536Z,92412.48
2022-12-23T00:50:00.285Z,92389.88
2022-12-23T00:58:23.189Z,92399.86
2022-12-23T01:06:46.137Z,92421.08
2022-12-23T01:15:09.319Z,92429.83
2022-12-23T01:23:33.406Z,92452.13
2022-12-23T01:31:56.332Z,92483.00
2022-12-23T01:40:19.354Z,92486.89
2022-12-23T01:48:47.125Z,92506.41
2022-12-23T01:57:10.344Z,92534.02
2022-12-23T02:05:33.143Z,92546.83
2022-12-23T02:14:37.036Z,92561.14
2022-12-23T02:23:21.747Z,92608.77
2022-12-23T02:32:04.304Z,92644.04
2022-12-23T02:40:46.008Z,92644.11
2022-12-23T02:49:20.071Z,92664.23
2022-12-23T02:57:47.018Z,92686.29
2022-12-23T03:06:19.702Z,92680.04
2022-12-23T03:15:14.508Z,92687.44
2022-12-23T03:24:05.838Z,92695.58
2022-12-23T03:32:34.339Z,92685.65
2022-12-23T03:41:02.670Z,92689.71
2022-12-23T03:49:38.148Z,92703.33
2022-12-23T03:58:19.853Z,92693.32
2022-12-23T04:06:51.252Z,92649.86
2022-12-23T04:15:19.380Z,92589.53
2022-12-23T04:23:42.791Z,92549.45
2022-12-23T04:32:06.072Z,92547.17
2022-12-23T04:40:28.908Z,92566.79
2022-12-23T04:48:51.747Z,92575.88
2022-12-23T04:57:15.425Z,92580.66
2022-12-23T05:05:44.087Z,92596.92
2022-12-23T05:14:06.866Z,92611.42
2022-12-23T05:22:29.619Z,92598.04
2022-12-23T05:31:04.414Z,92618.90
2022-12-23T05:39:27.320Z,92644.77
2022-12-23T05:47:50.163Z,92656.50
2022-12-23T05:56:13.149Z,92653.42
2022-12-23T06:04:35.967Z,92674.96
2022-12-23T06:12:58.969Z,92699.34
2022-12-23T06:21:22.122Z,92716.65
2022-12-23T06:29:45.039Z,92697.21
2022-12-23T06:38:12.052Z,92675.07
2022-12-23T06:46:35.547Z,92684.88
2022-12-23T06:54:58.390Z,92714.45
2022-12-23T07:03:21.749Z,92712.98
2022-12-23T07:11:44.700Z,92701.35
2022-12-23T07:20:08.699Z,92704.95
2022-12-23T07:28:32.011Z,92715.94
2022-12-23T07:36:55.850Z,92722.25
2022-12-23T07:45:18.767Z,92750.91
2022-12-23T07:53:41.660Z,92766.62
2022-12-23T08:02:04.701Z,92752.44
2022-12-23T08:10:28.020Z,92760.70
2022-12-23T08:18:50.929Z,92793.77
2022-12-23T08:27:13.998Z,92796.59
2022-12-23T08:35:37.425Z,92785.85
2022-12-23T08:44:00.293Z,92798.55
2022-12-23T08:52:23.472Z,92807.45
2022-12-23T09:00:46.496Z,92834.81
2022-12-23T09:09:15.800Z,92834.87
2022-12-23T09:17:38.820Z,92825.58
2022-12-23T09:26:01.787Z,92874.55
2022-12-23T09:34:26.600Z,92926.98
2022-12-23T09:43:15.265Z,92938.00
2022-12-23T09:51:38.804Z,92959.23
2022-12-23T10:00:08.659Z,93027.02
2022-12-23T10:08:39.903Z,93081.36
2022-12-23T10:17:08.973Z,93149.93
2022-12-23T10:25:37.417Z,93223.82
2022-12-23T10:34:38.380Z,93263.41
2022-12-23T10:43:17.049Z,93291.98
2022-12-23T10:51:52.167Z,93376.62
2022-12-23T11:00:24.888Z,93440.64
2022-12-23T11:08:50.891Z,93430.41
2022-12-23T11:17:26.031Z,93417.76
2022-12-23T11:25:48.876Z,93406.73
2022-12-23T11:34:18.761Z,93369.11
2022-12-23T11:42:42.753Z,93364.29
2022-12-23T11:51:05.894Z,93365.40
2022-12-23T11:59:40.545Z,93359.27
2022-12-23T12:08:14.697Z,93353.48
2022-12-23T12:17:03.206Z,93347.10
2022-12-23T12:25:44.934Z,93324.64
2022-12-23T12:34:22.844Z,93284.76
2022-12-23T12:42:58.821Z,93250.98
2022-12-23T12:51:40.340Z,93229.73
2022-12-23T13:00:07.231Z,93219.27
2022-12-23T13:09:02.505Z,93213.07
2022-12-23T13:17:32.527Z,93192.10
2022-12-23T13:26:06.176Z,93152.17
2022-12-23T13:34:34.813Z,93124.88
2022-12-23T13:43:05.760Z,93105.71
2022-12-23T13:51:44.501Z,93080.04
2022-12-23T14:00:16.369Z,93065.21
2022-12-23T14:08:43.357Z,93051.27
2022-12-23T14:17:20.292Z,93019.63
2022-12-23T14:25:59.251Z,92980.05
2022-12-23T14:34:23.422Z,92972.21
2022-12-23T14:42:48.156Z,92977.06
2022-12-23T14:51:11.057Z,92983.54
2022-12-23T15:00:01.525Z,92976.90
2022-12-23T15:08:32.071Z,92955.17
2022-12-23T15:16:55.039Z,92951.95
2022-12-23T15:25:30.639Z,92951.15
2022-12-23T15:34:04.141Z,92959.39
2022-12-23T15:42:38.756Z,92965.77
2022-12-23T15:51:11.243Z,92959.76
2022-12-23T15:59:38.683Z,92949.32
2022-12-23T16:08:11.837Z,92951.04
2022-12-23T16:16:42.305Z,92959.44
2022-12-23T16:25:15.250Z,92944.92
2022-12-23T16:33:45.766Z,92927.58
2022-12-23T16:42:11.280Z,92924.46
2022-12-23T16:50:37.038Z,92939.34
2022-12-23T16:59:00.928Z,92949.92
2022-12-23T17:07:27.117Z,92942.92
2022-12-23T17:15:50.542Z,92942.21
2022-12-23T17:24:17.268Z,92958.95
2022-12-23T17:32:40.207Z,92977.63
2022-12-23T17:41:03.187Z,93010.16
2022-12-23T17:49:25.962Z,93036.01
2022-12-23T17:57:48.920Z,93018.36
2022-12-23T18:06:15.916Z,93022.48
2022-12-23T18:14:38.731Z,93022.71
2022-12-23T18:23:04.134Z,93035.69
2022-12-23T18:31:27.827Z,93038.71
2022-12-23T18:39:51.755Z,93056.60
2022-12-23T18:48:15.221Z,93083.41
2022-12-23T18:56:38.002Z,93111.44
2022-12-23T19:05:00.802Z,93137.70
2022-12-23T19:13:23.740Z,93148.73
2022-12-23T19:21:46.706Z,93144.72
2022-12-23T19:30:14.667Z,93166.84
2022-12-23T19:38:37.969Z,93197.81
2022-12-23T19:47:01.839Z,93233.60
2022-12-23T19:55:24.721Z,93252.52
2022-12-23T20:03:49.110Z,93258.36
2022-12-23T20:12:12.013Z,93270.84
2022-12-23T20:20:36.214Z,93300.31
2022-12-23T20:28:59.524Z,93306.69
2022-12-23T20:37:22.401Z,93314.43
2022-12-23T20:45:46.353Z,93329.99
2022-12-23T20:54:09.329Z,93344.30
2022-12-23T21:02:32.339Z,93351.13
2022-12-23T21:10:55.864Z,93348.50
2022-12-23T21:19:20.745Z,93343.63
2022-12-23T21:27:43.881Z,93352.34
2022-12-23T21:36:08.169Z,93378.39
2022-12-23T21:44:31.086Z,93394.88
2022-12-23T21:52:54.072Z,93375.77
2022-12-23T22:01:19.433Z,93388.89
2022-12-23T22:09:42.436Z,93403.38
2022-12-23T22:18:05.314Z,93392.40
2022-12-23T22:26:31.108Z,93375.89
2022-12-23T22:34:54.033Z,93385.27
2022-12-23T22:43:17.693Z,93402.91
2022-12-23T22:51:41.337Z,93397.27
2022-12-23T23:00:11.919Z,93392.17
2022-12-23T23:08:36.243Z,93380.48
2022-12-23T23:16:59.202Z,93396.40
2022-12-23T23:25:23.619Z,93402.46
2022-12-23T23:33:47.163Z,93415.17
2022-12-23T23:42:10.749Z,93415.61
2022-12-23T23:50:33.623Z,93417.02
2022-12-23T23:58:57.120Z,93395.88
